createdAt,value
2022-10-22T00:00:45.888Z,9.20
2022-10-22T00:03:13.505Z,9.20
2022-10-22T00:05:41.041Z,9.20
2022-10-22T00:08:08.466Z,9.20
2022-10-22T00:10:37.675Z,9.20
2022-10-22T00:13:05.347Z,9.20
2022-10-22T00:15:32.956Z,9.20
2022-10-22T00:17:59.960Z,9.20
2022-10-22T00:20:27.280Z,9.20
2022-10-22T00:22:54.776Z,9.20
2022-10-22T00:25:21.854Z,9.20
2022-10-22T00:27:51.725Z,9.20
2022-10-22T00:30:19.265Z,9.20
2022-10-22T00:32:46.676Z,9.20
2022-10-22T00:35:14.498Z,9.20
2022-10-22T00:37:42.014Z,9.20
2022-10-22T00:40:09.935Z,9.20
2022-10-22T00:42:36.970Z,9.20
2022-10-22T00:45:11.294Z,9.20
2022-10-22T00:47:43.498Z,9.20
2022-10-22T00:50:28.146Z,9.10
2022-10-22T00:52:55.516Z,9.10
2022-10-22T00:55:24.259Z,9.10
2022-10-22T00:57:55.223Z,9.10
2022-10-22T01:00:23.194Z,9.10
2022-10-22T01:02:51.651Z,9.00
2022-10-22T01:05:19.512Z,8.90
2022-10-22T01:07:51.836Z,8.80
2022-10-22T01:10:39.481Z,8.70
2022-10-22T01:13:13.309Z,8.50
2022-10-22T01:15:48.676Z,8.40
2022-10-22T01:18:29.318Z,8.40
2022-10-22T01:21:08.973Z,8.50
2022-10-22T01:23:51.458Z,8.50
2022-10-22T01:28:49.395Z,8.70
2022-10-22T01:31:17.612Z,8.70
2022-10-22T01:33:46.451Z,8.80
2022-10-22T01:36:14.906Z,8.80
2022-10-22T01:38:43.125Z,8.80
2022-10-22T01:41:11.360Z,8.90
2022-10-22T01:43:38.841Z,8.90
2022-10-22T01:46:07.547Z,8.90
2022-10-22T01:48:38.396Z,8.90
2022-10-22T01:51:16.040Z,8.90
2022-10-22T01:54:02.973Z,8.80
2022-10-22T01:56:30.633Z,8.90
2022-10-22T01:59:07.443Z,8.80
2022-10-22T02:01:53.359Z,8.90
2022-10-22T02:04:26.947Z,8.90
2022-10-22T02:06:56.466Z,8.90
2022-10-22T02:09:24.726Z,8.90
2022-10-22T02:11:52.470Z,8.90
2022-10-22T02:14:20.392Z,9.00
2022-10-22T02:16:49.131Z,9.00
2022-10-22T02:19:25.835Z,9.00
2022-10-22T02:21:54.100Z,9.00
2022-10-22T02:24:21.938Z,8.90
2022-10-22T02:26:55.469Z,8.90
2022-10-22T02:29:26.728Z,8.80
2022-10-22T02:31:56.337Z,8.70
2022-10-22T02:34:24.493Z,8.70
2022-10-22T02:36:52.605Z,8.70
2022-10-22T02:39:21.120Z,8.70
2022-10-22T02:41:56.042Z,8.70
2022-10-22T02:44:23.485Z,8.70
2022-10-22T02:46:54.432Z,8.60
2022-10-22T02:49:22.583Z,8.70
2022-10-22T02:51:50.182Z,8.70
2022-10-22T02:54:17.655Z,8.60
2022-10-22T02:56:45.123Z,8.60
2022-10-22T02:59:12.582Z,8.50
2022-10-22T03:01:43.010Z,8.60
2022-10-22T03:04:13.287Z,8.60
2022-10-22T03:06:44.102Z,8.60
2022-10-22T03:09:11.933Z,8.50
2022-10-22T03:11:39.329Z,8.60
2022-10-22T03:14:06.689Z,8.60
2022-10-22T03:16:34.291Z,8.60
2022-10-22T03:19:02.295Z,8.60
2022-10-22T03:21:43.993Z,8.70
2022-10-22T03:24:17.462Z,8.70
2022-10-22T03:26:46.861Z,8.70
2022-10-22T03:29:15.334Z,8.70
2022-10-22T03:31:42.992Z,8.70
2022-10-22T03:34:12.459Z,8.70
2022-10-22T03:36:40.571Z,8.70
2022-10-22T03:39:08.302Z,8.70
2022-10-22T03:41:35.897Z,8.70
2022-10-22T03:44:04.963Z,8.70
2022-10-22T03:46:32.401Z,8.70
2022-10-22T03:48:59.411Z,8.70
2022-10-22T03:51:28.230Z,8.70
2022-10-22T03:53:55.885Z,8.60
2022-10-22T03:56:23.440Z,8.60
2022-10-22T03:58:50.890Z,8.60
2022-10-22T04:01:18.317Z,8.50
2022-10-22T04:03:45.865Z,8.50
2022-10-22T04:06:13.676Z,8.40
2022-10-22T04:08:41.551Z,8.40
2022-10-22T04:11:09.228Z,8.40
2022-10-22T04:13:36.941Z,8.40
2022-10-22T04:16:11.737Z,8.40
2022-10-22T04:18:40.181Z,8.20
2022-10-22T04:21:08.286Z,8.10
2022-10-22T04:23:35.845Z,8.00
2022-10-22T04:26:05.136Z,8.00
2022-10-22T04:28:32.631Z,7.90
2022-10-22T04:31:00.108Z,8.00
2022-10-22T04:33:27.691Z,7.90
2022-10-22T04:35:55.253Z,7.80
2022-10-22T04:38:22.717Z,7.70
2022-10-22T04:40:50.245Z,7.70
2022-10-22T04:43:17.704Z,7.60
2022-10-22T04:45:45.155Z,7.50
2022-10-22T04:48:12.741Z,7.40
2022-10-22T04:50:40.158Z,7.40
2022-10-22T04:53:10.015Z,7.50
2022-10-22T04:55:37.514Z,7.50
2022-10-22T04:58:06.540Z,7.60
2022-10-22T05:00:33.944Z,7.70
2022-10-22T05:03:01.300Z,7.80
2022-10-22T05:05:28.696Z,7.80
2022-10-22T05:07:56.504Z,7.90
2022-10-22T05:10:24.055Z,7.90
2022-10-22T05:12:51.544Z,7.90
2022-10-22T05:15:18.963Z,7.90
2022-10-22T05:17:46.408Z,8.00
2022-10-22T05:20:15.363Z,8.00
2022-10-22T05:22:42.926Z,7.90
2022-10-22T05:25:10.369Z,7.90
2022-10-22T05:27:38.104Z,7.90
2022-10-22T05:30:06.089Z,7.70
2022-10-22T05:32:35.163Z,7.70
2022-10-22T05:35:02.487Z,7.80
2022-10-22T05:37:29.857Z,7.80
2022-10-22T05:40:06.615Z,7.80
2022-10-22T05:42:44.273Z,7.90
2022-10-22T05:45:11.590Z,8.00
2022-10-22T05:47:39.164Z,8.00
2022-10-22T05:50:06.941Z,8.10
2022-10-22T05:52:34.621Z,8.20
2022-10-22T05:55:05.615Z,8.40
2022-10-22T05:57:32.386Z,8.50
2022-10-22T06:00:01.971Z,8.60
2022-10-22T06:02:40.934Z,8.50
2022-10-22T06:05:08.734Z,8.50
2022-10-22T06:07:36.069Z,8.10
2022-10-22T06:10:03.931Z,8.10
2022-10-22T06:12:31.354Z,8.00
2022-10-22T06:14:58.919Z,8.00
2022-10-22T06:17:25.876Z,8.10
2022-10-22T06:19:53.438Z,8.30
2022-10-22T06:22:20.990Z,8.40
2022-10-22T06:24:48.517Z,8.20
2022-10-22T06:27:18.203Z,8.30
2022-10-22T06:29:48.839Z,8.30
2022-10-22T06:32:16.289Z,8.50
2022-10-22T06:34:43.377Z,8.60
2022-10-22T06:37:10.521Z,8.70
2022-10-22T06:39:39.610Z,8.60
2022-10-22T06:42:06.517Z,8.80
2022-10-22T06:44:34.470Z,8.90
2022-10-22T06:47:02.251Z,8.90
2022-10-22T06:49:29.066Z,8.90
2022-10-22T06:51:55.942Z,9.00
2022-10-22T06:54:23.214Z,9.00
2022-10-22T06:56:50.185Z,9.20
2022-10-22T06:59:17.444Z,9.30
2022-10-22T07:01:44.885Z,9.30
2022-10-22T07:04:11.892Z,9.40
2022-10-22T07:06:38.906Z,9.50
2022-10-22T07:09:06.398Z,9.50
2022-10-22T07:11:44.070Z,9.60
2022-10-22T07:14:11.542Z,9.60
2022-10-22T07:16:38.894Z,9.70
2022-10-22T07:19:05.970Z,9.80
2022-10-22T07:21:32.834Z,9.80
2022-10-22T07:23:59.738Z,9.90
2022-10-22T07:26:31.037Z,10.00
2022-10-22T07:28:59.268Z,10.00
2022-10-22T07:31:26.472Z,10.10
2022-10-22T07:33:53.947Z,10.20
2022-10-22T07:36:21.082Z,10.30
2022-10-22T07:38:49.299Z,10.40
2022-10-22T07:41:16.812Z,10.50
2022-10-22T07:43:43.636Z,10.50
2022-10-22T07:46:10.651Z,10.50
2022-10-22T07:48:37.786Z,10.70
2022-10-22T07:51:04.653Z,10.80
2022-10-22T07:53:31.541Z,10.90
2022-10-22T07:55:58.867Z,10.90
2022-10-22T07:58:25.687Z,11.00
2022-10-22T08:00:55.858Z,11.10
2022-10-22T08:03:23.373Z,11.20
2022-10-22T08:05:52.032Z,11.20
2022-10-22T08:08:19.719Z,11.20
2022-10-22T08:10:48.052Z,11.20
2022-10-22T08:13:15.242Z,11.20
2022-10-22T08:18:14.550Z,10.80
2022-10-22T08:20:42.224Z,10.80
2022-10-22T08:23:09.078Z,10.70
2022-10-22T08:25:35.881Z,10.80
2022-10-22T08:28:02.644Z,10.80
2022-10-22T08:30:29.948Z,10.90
2022-10-22T08:32:56.795Z,10.80
2022-10-22T08:35:23.792Z,10.80
2022-10-22T08:37:50.560Z,10.80
2022-10-22T08:40:29.087Z,10.80
2022-10-22T08:43:07.132Z,10.80
2022-10-22T08:45:54.571Z,10.90
2022-10-22T08:48:42.876Z,10.70
2022-10-22T08:51:16.168Z,10.60
2022-10-22T08:53:50.063Z,10.60
2022-10-22T08:56:17.554Z,10.60
2022-10-22T08:58:45.101Z,10.70
2022-10-22T09:01:13.781Z,10.80
2022-10-22T09:03:51.577Z,10.90
2022-10-22T09:06:21.337Z,11.00
2022-10-22T09:08:49.403Z,11.10
2022-10-22T09:11:25.183Z,11.10
2022-10-22T09:13:54.956Z,11.20
2022-10-22T09:16:37.739Z,11.20
2022-10-22T09:19:14.579Z,11.10
2022-10-22T09:21:42.091Z,11.10
2022-10-22T09:24:14.269Z,11.30
2022-10-22T09:26:41.766Z,11.30
2022-10-22T09:29:14.183Z,11.40
2022-10-22T09:31:42.059Z,11.60
2022-10-22T09:34:09.457Z,11.70
2022-10-22T09:36:38.416Z,11.80
2022-10-22T09:39:21.270Z,11.80
2022-10-22T09:41:48.753Z,11.80
2022-10-22T09:44:17.726Z,11.80
2022-10-22T09:46:46.494Z,11.80
2022-10-22T09:49:16.000Z,11.60
2022-10-22T09:51:55.645Z,11.60
2022-10-22T09:54:30.641Z,11.40
2022-10-22T09:57:03.414Z,11.40
2022-10-22T09:59:37.251Z,11.30
2022-10-22T10:02:20.138Z,11.40
2022-10-22T10:05:02.599Z,11.40
2022-10-22T10:07:33.884Z,11.40
2022-10-22T10:10:01.282Z,11.40
2022-10-22T10:12:34.622Z,11.30
2022-10-22T10:15:05.284Z,11.30
2022-10-22T10:17:35.892Z,11.20
2022-10-22T10:20:09.640Z,11.30
2022-10-22T10:22:52.226Z,11.40
2022-10-22T10:25:19.685Z,11.60
2022-10-22T10:28:02.518Z,11.90
2022-10-22T10:30:30.716Z,12.10
2022-10-22T10:33:16.730Z,12.10
2022-10-22T10:35:52.576Z,12.20
2022-10-22T10:38:29.695Z,12.20
2022-10-22T10:40:57.145Z,12.60
2022-10-22T10:43:27.632Z,12.80
2022-10-22T10:45:55.809Z,13.30
2022-10-22T10:48:22.967Z,13.70
2022-10-22T10:50:50.259Z,14.10
2022-10-22T10:53:36.381Z,14.40
2022-10-22T10:56:26.437Z,14.60
2022-10-22T10:58:54.143Z,14.70
2022-10-22T11:01:27.946Z,14.40
2022-10-22T11:04:14.217Z,14.60
2022-10-22T11:06:42.596Z,14.70
2022-10-22T11:09:21.317Z,15.10
2022-10-22T11:11:57.598Z,15.20
2022-10-22T11:14:31.186Z,15.30
2022-10-22T11:17:04.746Z,15.20
2022-10-22T11:19:50.635Z,15.10
2022-10-22T11:23:13.177Z,14.80
2022-10-22T11:25:35.092Z,14.50
2022-10-22T11:28:21.699Z,14.20
2022-10-22T11:30:51.706Z,14.20
2022-10-22T11:33:22.627Z,14.30
2022-10-22T11:35:50.945Z,14.60
2022-10-22T11:38:21.047Z,14.70
2022-10-22T11:40:51.466Z,14.70
2022-10-22T11:43:31.150Z,14.60
2022-10-22T11:46:21.766Z,14.50
2022-10-22T11:49:06.781Z,14.50
2022-10-22T11:51:38.402Z,14.60
2022-10-22T11:54:44.425Z,14.70
2022-10-22T11:57:14.778Z,15.00
2022-10-22T11:59:52.397Z,14.90
2022-10-22T12:02:24.240Z,14.80
2022-10-22T12:05:17.591Z,14.80
2022-10-22T12:08:15.593Z,14.80
2022-10-22T12:11:02.067Z,14.90
2022-10-22T12:13:31.640Z,15.10
2022-10-22T12:16:02.211Z,15.10
2022-10-22T12:18:35.304Z,15.10
2022-10-22T12:21:02.586Z,15.00
2022-10-22T12:23:32.395Z,14.90
2022-10-22T12:25:59.939Z,15.10
2022-10-22T12:28:29.930Z,15.20
2022-10-22T12:30:59.698Z,15.10
2022-10-22T12:33:28.599Z,14.90
2022-10-22T12:35:57.865Z,14.70
2022-10-22T12:38:25.736Z,14.70
2022-10-22T12:40:55.843Z,14.70
2022-10-22T12:43:27.668Z,14.70
2022-10-22T12:45:55.687Z,14.50
2022-10-22T12:48:25.432Z,14.60
2022-10-22T12:50:57.370Z,14.50
2022-10-22T12:53:27.919Z,14.60
2022-10-22T12:55:55.655Z,14.80
2022-10-22T12:58:29.203Z,14.80
2022-10-22T13:01:02.453Z,15.00
2022-10-22T13:03:35.535Z,15.00
2022-10-22T13:06:32.090Z,15.10
2022-10-22T13:08:59.652Z,15.20
2022-10-22T13:11:41.116Z,15.20
2022-10-22T13:14:18.360Z,15.30
2022-10-22T13:17:02.840Z,15.10
2022-10-22T13:19:48.906Z,15.20
2022-10-22T13:22:34.839Z,15.20
2022-10-22T13:25:05.427Z,15.30
2022-10-22T13:27:32.951Z,15.20
2022-10-22T13:30:02.191Z,15.20
2022-10-22T13:32:33.309Z,15.20
2022-10-22T13:35:01.685Z,15.20
2022-10-22T13:37:30.324Z,15.20
2022-10-22T13:39:57.544Z,15.20
2022-10-22T13:42:25.281Z,15.20
2022-10-22T13:44:52.808Z,15.20
2022-10-22T13:47:20.130Z,15.40
2022-10-22T13:49:48.018Z,15.50
2022-10-22T13:52:21.805Z,15.50
2022-10-22T13:54:49.173Z,15.60
2022-10-22T13:57:18.516Z,15.60
2022-10-22T13:59:45.943Z,15.60
2022-10-22T14:02:13.623Z,15.50
2022-10-22T14:04:42.742Z,15.40
2022-10-22T14:07:14.494Z,15.30
2022-10-22T14:09:42.111Z,15.30
2022-10-22T14:12:16.854Z,15.10
2022-10-22T14:14:44.460Z,14.90
2022-10-22T14:17:17.334Z,14.70
2022-10-22T14:19:45.996Z,14.60
2022-10-22T14:22:14.845Z,14.50
2022-10-22T14:24:42.288Z,14.40
2022-10-22T14:27:11.818Z,14.30
2022-10-22T14:29:38.822Z,14.30
2022-10-22T14:32:12.435Z,14.40
2022-10-22T14:34:40.030Z,14.40
2022-10-22T14:37:25.386Z,14.40
2022-10-22T14:39:59.949Z,14.30
2022-10-22T14:42:28.268Z,14.20
2022-10-22T14:44:55.767Z,14.10
2022-10-22T14:47:23.238Z,14.00
2022-10-22T14:49:50.940Z,14.00
2022-10-22T14:52:18.810Z,14.00
2022-10-22T14:54:46.386Z,14.00
2022-10-22T14:57:14.762Z,14.10
2022-10-22T14:59:42.277Z,14.10
2022-10-22T15:02:13.416Z,14.10
2022-10-22T15:04:40.985Z,14.10
2022-10-22T15:07:08.392Z,14.10
2022-10-22T15:09:35.728Z,14.10
2022-10-22T15:12:03.523Z,14.10
2022-10-22T15:14:31.293Z,14.00
2022-10-22T15:16:59.493Z,14.00
2022-10-22T15:19:27.058Z,13.90
2022-10-22T15:21:54.572Z,13.90
2022-10-22T15:24:24.194Z,13.80
2022-10-22T15:26:53.691Z,13.80
2022-10-22T15:29:21.187Z,13.70
2022-10-22T15:31:48.659Z,13.70
2022-10-22T15:34:23.748Z,13.60
2022-10-22T15:36:51.638Z,13.50
2022-10-22T15:39:19.180Z,13.50
2022-10-22T15:41:48.848Z,13.40
2022-10-22T15:44:19.418Z,13.40
2022-10-22T15:46:55.231Z,13.40
2022-10-22T15:49:27.858Z,13.30
2022-10-22T15:51:55.699Z,13.20
2022-10-22T15:54:30.497Z,13.10
2022-10-22T15:56:58.661Z,12.80
2022-10-22T15:59:26.297Z,12.60
2022-10-22T16:01:53.787Z,12.40
2022-10-22T16:04:21.139Z,12.20
2022-10-22T16:06:49.933Z,12.10
2022-10-22T16:09:19.204Z,11.90
2022-10-22T16:11:47.181Z,11.80
2022-10-22T16:14:16.555Z,11.70
2022-10-22T16:16:45.465Z,11.60
2022-10-22T16:19:13.652Z,11.50
2022-10-22T16:21:41.159Z,11.40
2022-10-22T16:24:09.152Z,11.30
2022-10-22T16:26:36.136Z,11.20
2022-10-22T16:29:03.732Z,11.10
2022-10-22T16:31:31.109Z,11.10
2022-10-22T16:33:59.809Z,11.00
2022-10-22T16:36:27.317Z,10.90
2022-10-22T16:38:55.468Z,10.80
2022-10-22T16:41:23.694Z,10.80
2022-10-22T16:43:54.773Z,10.70
2022-10-22T16:46:23.086Z,10.70
2022-10-22T16:48:52.133Z,10.60
2022-10-22T16:51:20.822Z,10.50
2022-10-22T16:53:48.413Z,10.50
2022-10-22T16:56:16.645Z,10.40
2022-10-22T16:58:44.443Z,10.30
2022-10-22T17:01:13.386Z,10.10
2022-10-22T17:03:42.460Z,9.90
2022-10-22T17:06:10.053Z,9.50
2022-10-22T17:08:37.664Z,9.40
2022-10-22T17:11:24.205Z,9.30
2022-10-22T17:13:53.083Z,9.50
2022-10-22T17:16:21.874Z,9.50
2022-10-22T17:18:49.442Z,9.60
2022-10-22T17:21:17.136Z,9.80
2022-10-22T17:23:44.818Z,9.70
2022-10-22T17:26:20.609Z,9.70
2022-10-22T17:28:47.911Z,9.70
2022-10-22T17:31:17.991Z,9.50
2022-10-22T17:33:45.584Z,9.50
2022-10-22T17:36:14.064Z,9.60
2022-10-22T17:38:42.329Z,9.70
2022-10-22T17:41:14.711Z,9.70
2022-10-22T17:43:41.969Z,9.80
2022-10-22T17:46:13.202Z,9.80
2022-10-22T17:48:49.922Z,9.80
2022-10-22T17:51:34.334Z,9.70
2022-10-22T17:54:14.324Z,9.50
2022-10-22T17:56:48.927Z,9.20
2022-10-22T17:59:22.216Z,8.90
2022-10-22T18:01:59.418Z,8.70
2022-10-22T18:04:27.508Z,8.40
2022-10-22T18:06:55.251Z,8.30
2022-10-22T18:09:23.073Z,8.10
2022-10-22T18:11:52.143Z,8.10
2022-10-22T18:14:20.311Z,8.00
2022-10-22T18:16:48.478Z,8.00
2022-10-22T18:19:18.048Z,8.00
2022-10-22T18:21:48.005Z,8.00
2022-10-22T18:24:15.526Z,8.00
2022-10-22T18:26:42.806Z,8.00
2022-10-22T18:29:10.401Z,8.10
2022-10-22T18:31:37.765Z,8.10
2022-10-22T18:34:04.673Z,8.10
2022-10-22T18:36:31.520Z,8.10
2022-10-22T18:38:59.463Z,8.00
2022-10-22T18:41:26.927Z,7.90
2022-10-22T18:43:58.534Z,8.00
2022-10-22T18:46:26.297Z,7.80
2022-10-22T18:48:56.734Z,7.60
2022-10-22T18:51:25.480Z,7.40
2022-10-22T18:54:05.207Z,7.30
2022-10-22T18:56:42.395Z,7.20
2022-10-22T18:59:18.940Z,7.20
2022-10-22T19:01:46.567Z,7.20
2022-10-22T19:04:14.535Z,7.20
2022-10-22T19:06:45.345Z,7.20
2022-10-22T19:09:14.850Z,7.10
2022-10-22T19:11:43.073Z,7.10
2022-10-22T19:14:10.714Z,7.10
2022-10-22T19:16:39.067Z,7.10
2022-10-22T19:19:07.131Z,7.10
2022-10-22T19:21:34.694Z,7.00
2022-10-22T19:24:02.178Z,7.00
2022-10-22T19:26:30.041Z,7.00
2022-10-22T19:29:00.470Z,7.00
2022-10-22T19:31:30.218Z,6.90
2022-10-22T19:33:57.730Z,6.90
2022-10-22T19:36:25.400Z,6.90
2022-10-22T19:38:52.649Z,6.90
2022-10-22T19:41:21.078Z,7.00
2022-10-22T19:43:49.161Z,7.00
2022-10-22T19:46:16.176Z,7.10
2022-10-22T19:48:43.336Z,7.10
2022-10-22T19:51:14.630Z,7.20
2022-10-22T19:53:41.670Z,7.20
2022-10-22T19:56:09.625Z,7.20
2022-10-22T19:58:37.893Z,7.20
2022-10-22T20:01:05.588Z,7.10
2022-10-22T20:03:32.812Z,7.10
2022-10-22T20:05:59.676Z,7.10
2022-10-22T20:08:26.495Z,7.10
2022-10-22T20:10:53.349Z,7.10
2022-10-22T20:13:20.371Z,7.10
2022-10-22T20:15:48.327Z,7.20
2022-10-22T20:18:15.271Z,7.20
2022-10-22T20:20:42.662Z,7.20
2022-10-22T20:23:09.514Z,7.20
2022-10-22T20:25:41.062Z,7.20
2022-10-22T20:28:07.966Z,7.20
2022-10-22T20:30:34.912Z,7.30
2022-10-22T20:33:02.136Z,7.20
2022-10-22T20:35:29.604Z,7.20
2022-10-22T20:37:57.028Z,7.20
2022-10-22T20:40:29.013Z,7.10
2022-10-22T20:43:03.630Z,7.00
2022-10-22T20:45:30.793Z,6.80
2022-10-22T20:48:02.781Z,6.60
2022-10-22T20:50:32.375Z,6.30
2022-10-22T20:52:59.945Z,6.20
2022-10-22T20:55:27.043Z,6.30
2022-10-22T20:57:54.322Z,6.40
2022-10-22T21:00:22.101Z,6.50
2022-10-22T21:02:52.217Z,6.50
2022-10-22T21:05:19.433Z,6.60
2022-10-22T21:07:46.802Z,6.60
2022-10-22T21:10:14.006Z,6.70
2022-10-22T21:12:50.615Z,6.60
2022-10-22T21:15:18.107Z,6.50
2022-10-22T21:17:46.202Z,6.40
2022-10-22T21:20:13.798Z,6.40
2022-10-22T21:22:41.309Z,6.40
2022-10-22T21:25:11.235Z,6.50
2022-10-22T21:27:41.794Z,6.50
2022-10-22T21:30:09.747Z,6.40
2022-10-22T21:32:46.831Z,6.40
2022-10-22T21:35:25.355Z,6.40
2022-10-22T21:37:55.842Z,6.50
2022-10-22T21:40:23.212Z,6.50
2022-10-22T21:42:50.884Z,6.60
2022-10-22T21:45:22.113Z,6.60
2022-10-22T21:47:49.981Z,6.70
2022-10-22T21:50:17.472Z,6.60
2022-10-22T21:52:44.931Z,6.60
2022-10-22T21:55:12.217Z,6.50
2022-10-22T21:57:39.961Z,6.50
2022-10-22T22:00:10.127Z,6.40
2022-10-22T22:02:48.575Z,6.40
2022-10-22T22:05:17.550Z,6.40
2022-10-22T22:07:45.197Z,6.30
2022-10-22T22:10:25.459Z,6.20
2022-10-22T22:12:53.303Z,6.30
2022-10-22T22:15:23.354Z,6.20
2022-10-22T22:17:54.510Z,6.10
2022-10-22T22:20:24.351Z,6.00
2022-10-22T22:22:52.017Z,6.00
2022-10-22T22:25:21.876Z,5.90
2022-10-22T22:27:49.365Z,5.90
2022-10-22T22:30:20.044Z,5.80
2022-10-22T22:32:50.150Z,5.80
2022-10-22T22:35:25.617Z,5.90
2022-10-22T22:37:53.156Z,6.00
2022-10-22T22:40:30.280Z,6.10
2022-10-22T22:43:00.588Z,6.20
2022-10-22T22:45:28.124Z,6.30
2022-10-22T22:47:55.407Z,6.30
2022-10-22T22:50:23.201Z,6.30
2022-10-22T22:52:50.567Z,6.30
2022-10-22T22:55:20.862Z,6.40
2022-10-22T22:57:48.407Z,6.40
2022-10-22T23:00:16.296Z,6.40
2022-10-22T23:02:43.974Z,6.50
2022-10-22T23:05:12.069Z,6.40
2022-10-22T23:07:39.476Z,6.30
2022-10-22T23:10:06.705Z,6.20
2022-10-22T23:12:34.056Z,6.10
2022-10-22T23:15:02.476Z,6.10
2022-10-22T23:17:30.163Z,6.00
2022-10-22T23:19:57.704Z,6.00
2022-10-22T23:22:25.088Z,6.00
2022-10-22T23:24:52.452Z,6.00
2022-10-22T23:27:19.877Z,5.90
2022-10-22T23:29:47.277Z,5.70
2022-10-22T23:32:14.866Z,5.70
2022-10-22T23:34:42.193Z,5.70
2022-10-22T23:37:11.206Z,5.80
2022-10-22T23:39:38.555Z,5.90
2022-10-22T23:42:06.084Z,5.90
2022-10-22T23:44:33.451Z,6.00
2022-10-22T23:47:04.008Z,5.90
2022-10-22T23:49:31.489Z,5.80
2022-10-22T23:52:01.552Z,5.50
2022-10-22T23:54:30.796Z,5.40
2022-10-22T23:56:58.237Z,5.30
2022-10-22T23:59:25.655Z,5.30
